createdAt,value
2018-06-15T00:01:21.405Z,93.33
2018-06-15T00:03:50.856Z,93.72
2018-06-15T00:06:20.295Z,92.97
2018-06-15T00:08:49.722Z,93.17
2018-06-15T00:11:19.169Z,94.48
2018-06-15T00:13:48.633Z,94.29
2018-06-15T00:16:18.084Z,94.91
2018-06-15T00:18:47.530Z,93.99
2018-06-15T00:21:16.954Z,92.83
2018-06-15T00:23:46.091Z,94.17
2018-06-15T00:26:15.556Z,93.87
2018-06-15T00:28:44.995Z,93.44
2018-06-15T00:31:14.415Z,92.06
2018-06-15T00:33:43.854Z,91.99
2018-06-15T00:36:13.284Z,93.43
2018-06-15T00:38:42.760Z,93.41
2018-06-15T00:41:12.316Z,93.05
2018-06-15T00:43:41.788Z,93.37
2018-06-15T00:46:11.292Z,93.11
2018-06-15T00:48:40.753Z,92.94
2018-06-15T00:51:10.173Z,93.18
2018-06-15T00:53:39.719Z,94.55
2018-06-15T00:56:09.196Z,94.38
2018-06-15T00:58:38.656Z,94.32
2018-06-15T01:01:08.132Z,91.98
2018-06-15T01:03:37.554Z,92.35
2018-06-15T01:06:07.020Z,92.10
2018-06-15T01:08:36.515Z,92.43
2018-06-15T01:11:06.387Z,93.41
2018-06-15T01:13:35.843Z,92.40
2018-06-15T01:16:05.301Z,92.71
2018-06-15T01:18:34.744Z,94.62
2018-06-15T01:21:04.196Z,94.79
2018-06-15T01:23:34.577Z,94.40
2018-06-15T01:26:04.114Z,94.14
2018-06-15T01:28:34.286Z,94.47
2018-06-15T01:31:03.709Z,93.94
2018-06-15T01:33:33.246Z,94.01
2018-06-15T01:36:03.372Z,93.37
2018-06-15T01:38:32.799Z,93.03
2018-06-15T01:41:02.259Z,94.60
2018-06-15T01:43:31.721Z,93.51
2018-06-15T01:46:01.135Z,93.04
2018-06-15T01:48:30.603Z,93.52
2018-06-15T01:51:00.030Z,93.48
2018-06-15T01:53:29.749Z,92.06
2018-06-15T01:55:59.206Z,92.57
2018-06-15T01:58:28.733Z,92.36
2018-06-15T02:00:58.188Z,91.68
2018-06-15T02:03:27.660Z,92.48
2018-06-15T02:05:57.104Z,93.10
2018-06-15T02:08:26.637Z,93.01
2018-06-15T02:10:56.068Z,94.08
2018-06-15T02:13:31.909Z,95.24
2018-06-15T02:16:02.280Z,94.91
2018-06-15T02:18:31.653Z,94.74
2018-06-15T02:21:00.998Z,94.99
2018-06-15T02:23:30.592Z,95.78
2018-06-15T02:25:59.962Z,95.64
2018-06-15T02:28:29.289Z,95.73
2018-06-15T02:30:58.642Z,95.78
2018-06-15T02:33:27.985Z,94.84
2018-06-15T02:35:57.304Z,94.78
2018-06-15T02:38:26.672Z,95.14
2018-06-15T02:40:56.038Z,95.68
2018-06-15T02:43:25.371Z,95.84
2018-06-15T02:45:54.690Z,95.42
2018-06-15T02:48:24.050Z,95.12
2018-06-15T02:50:53.421Z,95.30
2018-06-15T02:53:22.790Z,95.86
2018-06-15T02:55:52.159Z,94.82
2018-06-15T02:58:21.536Z,95.14
2018-06-15T03:00:50.878Z,94.15
2018-06-15T03:03:20.246Z,94.50
2018-06-15T03:05:49.613Z,93.90
2018-06-15T03:08:18.984Z,94.18
2018-06-15T03:10:48.353Z,93.76
2018-06-15T03:13:17.746Z,94.70
2018-06-15T03:15:47.076Z,93.82
2018-06-15T03:18:16.432Z,93.88
2018-06-15T03:20:45.758Z,93.77
2018-06-15T03:23:15.101Z,94.12
2018-06-15T03:25:44.449Z,93.07
2018-06-15T03:28:13.793Z,93.88
2018-06-15T03:30:43.137Z,93.13
2018-06-15T03:33:12.663Z,92.70
2018-06-15T03:35:42.041Z,93.09
2018-06-15T03:38:11.422Z,93.73
2018-06-15T03:40:40.764Z,94.15
2018-06-15T03:43:10.085Z,93.30
2018-06-15T03:45:39.446Z,93.81
2018-06-15T03:48:08.800Z,93.03
2018-06-15T03:50:38.173Z,94.85
2018-06-15T03:53:07.517Z,95.17
2018-06-15T03:55:36.889Z,94.81
2018-06-15T03:58:06.231Z,96.56
2018-06-15T04:00:35.576Z,95.81
2018-06-15T04:03:04.977Z,95.40
2018-06-15T04:05:34.344Z,95.70
2018-06-15T04:08:03.703Z,95.37
2018-06-15T04:10:33.064Z,96.39
2018-06-15T04:13:02.458Z,96.64
2018-06-15T04:15:31.833Z,96.60
2018-06-15T04:18:04.288Z,95.82
2018-06-15T04:20:34.084Z,96.34
2018-06-15T04:23:03.452Z,96.67
2018-06-15T04:25:33.040Z,95.07
2018-06-15T04:28:02.387Z,95.00
2018-06-15T04:30:31.717Z,93.73
2018-06-15T04:33:01.092Z,94.13
2018-06-15T04:35:30.442Z,95.51
2018-06-15T04:37:59.799Z,94.91
2018-06-15T04:40:29.149Z,95.48
2018-06-15T04:42:58.509Z,95.18
2018-06-15T04:45:27.813Z,94.62
2018-06-15T04:47:57.151Z,94.20
2018-06-15T04:50:26.523Z,93.51
2018-06-15T04:52:55.877Z,93.63
2018-06-15T04:55:25.184Z,94.07
2018-06-15T04:57:54.589Z,92.25
2018-06-15T05:00:23.928Z,92.89
2018-06-15T05:02:53.313Z,92.71
2018-06-15T05:05:22.652Z,92.07
2018-06-15T05:07:52.285Z,92.32
2018-06-15T05:10:21.629Z,92.63
2018-06-15T05:12:50.969Z,91.47
2018-06-15T05:15:20.312Z,90.69
2018-06-15T05:17:49.642Z,91.59
2018-06-15T05:20:18.972Z,90.70
2018-06-15T05:22:48.343Z,91.09
2018-06-15T05:25:17.662Z,90.08
2018-06-15T05:27:47.031Z,90.67
2018-06-15T05:30:16.383Z,90.86
2018-06-15T05:32:45.770Z,91.00
2018-06-15T05:35:15.095Z,91.87
2018-06-15T05:37:44.420Z,91.70
2018-06-15T05:40:13.740Z,91.29
2018-06-15T05:42:43.121Z,91.72
2018-06-15T05:45:12.559Z,92.79
2018-06-15T05:47:41.870Z,92.00
2018-06-15T05:50:11.233Z,92.31
2018-06-15T05:52:40.606Z,92.76
2018-06-15T05:55:09.961Z,91.95
2018-06-15T05:57:39.325Z,91.08
2018-06-15T06:00:08.773Z,90.56
2018-06-15T06:02:38.082Z,91.11
2018-06-15T06:05:07.549Z,91.88
2018-06-15T06:07:36.884Z,90.90
2018-06-15T06:10:07.025Z,89.67
2018-06-15T06:12:36.348Z,91.25
2018-06-15T06:15:05.755Z,90.38
2018-06-15T06:17:35.106Z,90.70
2018-06-15T06:20:04.913Z,92.02
2018-06-15T06:22:34.254Z,91.45
2018-06-15T06:25:03.649Z,91.05
2018-06-15T06:27:33.024Z,92.28
2018-06-15T06:30:02.446Z,90.81
2018-06-15T06:32:31.788Z,89.78
2018-06-15T06:35:01.154Z,91.42
2018-06-15T06:37:30.489Z,91.54
2018-06-15T06:39:59.965Z,91.04
2018-06-15T06:42:29.317Z,90.83
2018-06-15T06:44:58.675Z,88.35
2018-06-15T06:47:28.028Z,88.28
2018-06-15T06:49:57.352Z,89.97
2018-06-15T06:52:26.724Z,89.76
2018-06-15T06:54:56.053Z,88.75
2018-06-15T06:57:25.404Z,88.10
2018-06-15T06:59:54.784Z,87.00
2018-06-15T07:02:24.216Z,88.16
2018-06-15T07:04:53.500Z,88.00
2018-06-15T07:07:22.888Z,90.08
2018-06-15T07:09:52.244Z,90.65
2018-06-15T07:12:21.676Z,90.17
2018-06-15T07:14:54.462Z,89.94
2018-06-15T07:17:24.041Z,92.29
2018-06-15T07:19:53.365Z,93.25
2018-06-15T07:22:22.734Z,94.35
2018-06-15T07:24:52.064Z,93.58
2018-06-15T07:27:21.563Z,93.14
2018-06-15T07:29:50.964Z,91.80
2018-06-15T07:32:20.317Z,91.28
2018-06-15T07:34:49.636Z,90.04
2018-06-15T07:37:19.037Z,91.32
2018-06-15T07:39:48.349Z,89.38
2018-06-15T07:42:17.669Z,88.68
2018-06-15T07:44:47.014Z,88.59
2018-06-15T07:47:16.379Z,88.16
2018-06-15T07:49:45.749Z,86.67
2018-06-15T07:52:15.111Z,86.46
2018-06-15T07:54:44.455Z,86.55
2018-06-15T07:57:13.849Z,87.58
2018-06-15T07:59:43.271Z,86.59
2018-06-15T08:02:12.581Z,87.75
2018-06-15T08:04:41.909Z,86.75
2018-06-15T08:07:11.336Z,84.46
2018-06-15T08:09:41.772Z,84.93
2018-06-15T08:12:11.106Z,83.09
2018-06-15T08:14:40.467Z,84.32
2018-06-15T08:17:09.869Z,81.20
2018-06-15T08:19:39.268Z,83.02
2018-06-15T08:22:08.632Z,84.52
2018-06-15T08:24:38.955Z,84.56
2018-06-15T08:27:08.285Z,84.40
2018-06-15T08:29:37.617Z,81.20
2018-06-15T08:32:07.021Z,81.00
2018-06-15T08:34:36.384Z,78.55
2018-06-15T08:37:05.735Z,81.45
2018-06-15T08:39:35.094Z,78.68
2018-06-15T08:42:04.450Z,76.70
2018-06-15T08:44:33.785Z,79.87
2018-06-15T08:47:03.109Z,80.86
2018-06-15T08:49:32.421Z,81.06
2018-06-15T08:52:01.784Z,79.25
2018-06-15T08:54:31.116Z,76.00
2018-06-15T08:57:00.458Z,76.46
2018-06-15T08:59:29.980Z,77.79
2018-06-15T09:01:59.345Z,76.60
2018-06-15T09:04:28.679Z,77.62
2018-06-15T09:06:58.013Z,77.92
2018-06-15T09:09:27.396Z,77.23
2018-06-15T09:11:56.768Z,75.19
2018-06-15T09:14:26.120Z,78.23
2018-06-15T09:16:55.439Z,76.81
2018-06-15T09:19:24.999Z,76.12
2018-06-15T09:21:54.326Z,75.18
2018-06-15T09:24:23.832Z,76.23
2018-06-15T09:26:53.212Z,73.67
2018-06-15T09:29:22.584Z,73.07
2018-06-15T09:31:51.931Z,74.57
2018-06-15T09:34:21.296Z,72.28
2018-06-15T09:36:50.645Z,69.79
2018-06-15T09:39:19.969Z,70.93
2018-06-15T09:41:49.312Z,69.47
2018-06-15T09:44:18.689Z,66.43
2018-06-15T09:46:47.947Z,66.73
2018-06-15T09:49:17.336Z,69.80
2018-06-15T09:51:46.657Z,69.40
2018-06-15T09:54:16.068Z,66.27
2018-06-15T09:56:45.418Z,71.01
2018-06-15T09:59:14.806Z,71.30
2018-06-15T10:01:44.156Z,67.35
2018-06-15T10:04:13.524Z,70.49
2018-06-15T10:06:42.856Z,67.60
2018-06-15T10:09:12.197Z,68.22
2018-06-15T10:11:41.547Z,65.96
2018-06-15T10:14:10.915Z,64.72
2018-06-15T10:16:40.280Z,66.14
2018-06-15T10:19:09.648Z,65.67
2018-06-15T10:21:38.998Z,66.81
2018-06-15T10:24:08.402Z,65.70
2018-06-15T10:26:37.752Z,65.85
2018-06-15T10:29:07.152Z,64.79
2018-06-15T10:31:36.501Z,65.70
2018-06-15T10:34:06.048Z,65.18
2018-06-15T10:36:35.468Z,65.80
2018-06-15T10:39:06.861Z,68.08
2018-06-15T10:41:36.302Z,66.37
2018-06-15T10:44:05.736Z,68.79
2018-06-15T10:46:35.518Z,66.80
2018-06-15T10:49:04.865Z,64.69
2018-06-15T10:51:34.245Z,65.86
2018-06-15T10:54:03.665Z,67.47
2018-06-15T10:56:33.012Z,66.16
2018-06-15T10:59:02.351Z,67.15
2018-06-15T11:01:31.787Z,68.54
2018-06-15T11:04:01.120Z,68.30
2018-06-15T11:06:30.440Z,67.23
2018-06-15T11:08:59.842Z,65.53
2018-06-15T11:11:29.147Z,61.48
2018-06-15T11:13:58.504Z,61.82
2018-06-15T11:16:27.881Z,64.24
2018-06-15T11:18:57.210Z,64.89
2018-06-15T11:21:26.629Z,65.62
2018-06-15T11:23:56.057Z,65.35
2018-06-15T11:26:25.412Z,64.87
2018-06-15T11:28:54.854Z,66.45
2018-06-15T11:31:24.341Z,65.40
2018-06-15T11:33:53.671Z,62.28
2018-06-15T11:36:23.007Z,62.23
2018-06-15T11:38:52.359Z,61.16
2018-06-15T11:41:21.756Z,60.46
2018-06-15T11:43:51.082Z,63.06
2018-06-15T11:46:20.436Z,61.73
2018-06-15T11:48:49.810Z,56.47
2018-06-15T11:51:19.148Z,57.91
2018-06-15T11:53:48.237Z,60.18
2018-06-15T11:56:17.579Z,59.56
2018-06-15T11:58:46.941Z,56.19
2018-06-15T12:01:16.292Z,60.02
2018-06-15T12:03:45.611Z,59.88
2018-06-15T12:06:15.026Z,64.71
2018-06-15T12:08:44.369Z,63.51
2018-06-15T12:11:13.696Z,65.07
2018-06-15T12:13:43.040Z,64.60
2018-06-15T12:16:12.426Z,64.14
2018-06-15T12:18:41.780Z,66.10
2018-06-15T12:21:11.109Z,66.51
2018-06-15T12:23:40.441Z,64.87
2018-06-15T12:26:09.772Z,63.76
2018-06-15T12:28:39.203Z,64.40
2018-06-15T12:31:08.529Z,62.83
2018-06-15T12:33:37.865Z,63.01
2018-06-15T12:36:06.951Z,63.28
2018-06-15T12:38:36.311Z,62.40
2018-06-15T12:41:05.677Z,61.19
2018-06-15T12:43:35.013Z,60.62
2018-06-15T12:46:04.447Z,62.42
2018-06-15T12:48:33.740Z,63.84
2018-06-15T12:51:03.116Z,63.02
2018-06-15T13:11:16.164Z,67.02
2018-06-15T13:13:45.526Z,66.64
2018-06-15T13:16:14.860Z,68.29
2018-06-15T13:18:44.202Z,65.22
2018-06-15T13:21:13.521Z,64.74
2018-06-15T13:23:42.886Z,63.97
2018-06-15T13:26:12.189Z,66.61
2018-06-15T13:28:41.541Z,67.30
2018-06-15T13:31:10.869Z,68.29
2018-06-15T13:33:40.232Z,64.60
2018-06-15T13:36:09.583Z,65.05
2018-06-15T13:38:38.940Z,65.01
2018-06-15T13:41:08.334Z,67.08
2018-06-15T13:43:37.387Z,63.94
2018-06-15T13:46:06.951Z,64.54
2018-06-15T13:48:36.286Z,63.63
2018-06-15T13:51:05.649Z,64.60
2018-06-15T13:53:34.988Z,63.30
2018-06-15T13:56:04.384Z,62.58
2018-06-15T13:58:33.821Z,63.41
2018-06-15T14:01:03.165Z,63.40
2018-06-15T14:03:32.493Z,64.24
2018-06-15T14:06:01.983Z,61.73
2018-06-15T14:08:31.402Z,60.64
2018-06-15T14:11:00.760Z,58.16
2018-06-15T14:13:29.811Z,59.29
2018-06-15T14:15:59.176Z,57.61
2018-06-15T14:18:28.516Z,60.03
2018-06-15T14:20:57.844Z,61.41
2018-06-15T14:23:27.185Z,59.33
2018-06-15T14:25:56.520Z,57.68
2018-06-15T14:28:25.954Z,57.81
2018-06-15T14:30:55.268Z,58.84
2018-06-15T14:33:24.604Z,58.20
2018-06-15T14:35:53.925Z,57.89
2018-06-15T14:38:23.366Z,54.97
2018-06-15T14:40:52.705Z,56.36
2018-06-15T14:43:22.069Z,55.07
2018-06-15T14:45:51.394Z,55.18
2018-06-15T14:48:20.724Z,54.23
2018-06-15T14:50:50.036Z,54.70
2018-06-15T14:53:19.388Z,54.26
2018-06-15T14:55:48.740Z,54.52
2018-06-15T14:58:18.058Z,53.17
2018-06-15T15:00:47.439Z,52.02
2018-06-15T15:03:16.832Z,50.19
2018-06-15T15:05:46.184Z,48.49
2018-06-15T15:08:15.516Z,48.12
2018-06-15T15:10:44.881Z,45.82
2018-06-15T15:13:14.259Z,46.04
2018-06-15T15:15:43.592Z,47.32
2018-06-15T15:18:12.952Z,49.39
2018-06-15T15:20:42.286Z,46.72
2018-06-15T15:23:11.427Z,48.72
2018-06-15T15:25:40.774Z,50.44
2018-06-15T15:28:10.340Z,53.53
2018-06-15T15:30:39.665Z,54.34
2018-06-15T15:33:09.098Z,53.21
2018-06-15T15:35:38.409Z,50.99
2018-06-15T15:38:07.749Z,51.09
2018-06-15T15:40:37.092Z,50.79
2018-06-15T15:43:06.162Z,49.71
2018-06-15T15:45:35.494Z,47.93
2018-06-15T15:48:04.877Z,45.58
2018-06-15T15:50:34.210Z,44.35
2018-06-15T15:53:04.232Z,43.14
2018-06-15T16:04:55.400Z,40.53
2018-06-15T16:07:24.764Z,42.70
2018-06-15T16:09:54.095Z,41.90
2018-06-15T16:12:23.481Z,41.02
2018-06-15T16:14:52.864Z,43.02
2018-06-15T16:17:22.288Z,41.96
2018-06-15T16:19:52.241Z,39.64
2018-06-15T16:22:21.613Z,37.45
2018-06-15T16:24:50.958Z,37.15
2018-06-15T16:27:20.363Z,39.01
2018-06-15T16:29:49.651Z,41.66
2018-06-15T16:32:18.971Z,43.76
2018-06-15T16:34:48.344Z,45.93
2018-06-15T16:37:17.737Z,47.41
2018-06-15T16:39:47.004Z,49.57
2018-06-15T16:42:17.496Z,48.69
2018-06-15T16:44:46.892Z,48.50
2018-06-15T16:47:16.244Z,49.23
2018-06-15T16:49:45.608Z,50.28
2018-06-15T16:52:15.524Z,51.38
2018-06-15T16:54:44.860Z,51.71
2018-06-15T16:57:14.214Z,52.57
2018-06-15T16:59:43.604Z,53.17
2018-06-15T17:02:12.975Z,53.58
2018-06-15T17:04:42.355Z,55.11
2018-06-15T17:07:11.770Z,54.81
2018-06-15T17:09:41.161Z,56.71
2018-06-15T17:12:10.482Z,55.65
2018-06-15T17:14:39.810Z,57.77
2018-06-15T17:17:09.153Z,56.16
2018-06-15T17:19:38.491Z,57.94
2018-06-15T17:22:07.863Z,58.06
2018-06-15T17:24:37.219Z,58.09
2018-06-15T17:27:06.575Z,60.93
2018-06-15T17:29:35.904Z,60.91
2018-06-15T17:32:05.280Z,63.35
2018-06-15T17:34:34.663Z,59.41
2018-06-15T17:37:03.983Z,60.58
2018-06-15T17:39:33.320Z,62.15
2018-06-15T17:42:02.696Z,59.91
2018-06-15T17:44:32.133Z,59.32
2018-06-15T17:47:01.474Z,59.01
2018-06-15T17:49:30.798Z,60.35
2018-06-15T17:52:00.184Z,63.72
2018-06-15T17:54:29.510Z,64.64
2018-06-15T17:56:58.881Z,64.45
2018-06-15T17:59:28.227Z,64.31
2018-06-15T18:01:57.564Z,65.31
2018-06-15T18:04:26.926Z,64.74
2018-06-15T18:06:56.335Z,65.12
2018-06-15T18:09:25.380Z,63.21
2018-06-15T18:11:54.730Z,64.96
2018-06-15T18:14:24.078Z,65.28
2018-06-15T18:16:53.585Z,66.55
2018-06-15T18:19:22.940Z,66.33
2018-06-15T18:21:52.478Z,67.22
2018-06-15T18:24:21.828Z,69.69
2018-06-15T18:26:51.161Z,67.98
2018-06-15T18:29:20.504Z,66.46
2018-06-15T18:31:49.852Z,68.85
2018-06-15T18:34:19.246Z,68.26
2018-06-15T18:36:48.782Z,66.80
2018-06-15T18:39:18.093Z,67.12
2018-06-15T18:41:47.417Z,66.49
2018-06-15T18:44:16.763Z,67.72
2018-06-15T18:46:46.108Z,67.04
2018-06-15T18:49:15.496Z,68.58
2018-06-15T18:51:44.837Z,67.47
2018-06-15T18:54:17.968Z,67.98
2018-06-15T18:56:47.344Z,67.95
2018-06-15T18:59:16.684Z,68.02
2018-06-15T19:01:46.009Z,67.86
2018-06-15T19:04:15.391Z,69.57
2018-06-15T19:06:44.816Z,70.37
2018-06-15T19:09:14.192Z,69.64
2018-06-15T19:11:43.551Z,71.54
2018-06-15T19:14:12.919Z,72.95
2018-06-15T19:16:42.349Z,73.81
2018-06-15T19:19:15.352Z,74.43
2018-06-15T19:21:44.813Z,76.18
2018-06-15T19:24:14.152Z,77.47
2018-06-15T19:26:43.528Z,77.78
2018-06-15T19:29:12.946Z,78.20
2018-06-15T19:31:42.300Z,77.51
2018-06-15T19:34:11.748Z,78.49
2018-06-15T19:36:41.125Z,79.67
2018-06-15T19:39:10.926Z,80.12
2018-06-15T19:41:40.275Z,80.54
2018-06-15T19:44:09.689Z,81.01
2018-06-15T19:46:39.072Z,81.45
2018-06-15T19:49:08.678Z,81.83
2018-06-15T19:51:38.045Z,81.53
2018-06-15T19:54:07.453Z,82.28
2018-06-15T19:56:36.898Z,81.09
2018-06-15T19:59:06.348Z,81.97
2018-06-15T20:01:35.725Z,82.94
2018-06-15T20:04:05.232Z,82.70
2018-06-15T20:06:34.645Z,81.04
2018-06-15T20:09:05.968Z,82.48
2018-06-15T20:11:35.339Z,82.54
2018-06-15T20:14:05.466Z,82.24
2018-06-15T20:16:35.072Z,83.58
2018-06-15T20:19:04.481Z,82.72
2018-06-15T20:21:33.938Z,82.47
2018-06-15T20:24:03.419Z,83.23
2018-06-15T20:26:32.860Z,83.05
2018-06-15T20:29:02.239Z,83.22
2018-06-15T20:31:31.733Z,82.44
2018-06-15T20:34:01.120Z,82.30
2018-06-15T20:36:30.478Z,82.62
2018-06-15T20:38:59.828Z,82.63
2018-06-15T20:41:29.287Z,82.95
2018-06-15T20:43:58.694Z,83.03
2018-06-15T20:46:28.033Z,82.65
2018-06-15T20:48:57.475Z,83.56
2018-06-15T20:51:26.861Z,83.74
2018-06-15T20:53:56.200Z,83.13
2018-06-15T20:56:25.672Z,83.80
2018-06-15T20:58:55.044Z,83.27
2018-06-15T21:01:24.473Z,82.78
2018-06-15T21:03:53.827Z,82.83
2018-06-15T21:06:23.164Z,83.07
2018-06-15T21:08:52.516Z,83.92
2018-06-15T21:11:21.965Z,83.24
2018-06-15T21:13:51.304Z,84.32
2018-06-15T21:16:20.783Z,82.73
2018-06-15T21:18:50.145Z,83.30
2018-06-15T21:21:19.484Z,83.98
2018-06-15T21:23:48.797Z,83.90
2018-06-15T21:26:18.132Z,84.28
2018-06-15T21:28:47.498Z,83.77
2018-06-15T21:31:16.847Z,83.86
2018-06-15T21:33:46.998Z,83.78
2018-06-15T21:36:16.383Z,84.48
2018-06-15T21:38:45.739Z,83.81
2018-06-15T21:41:15.097Z,83.37
2018-06-15T21:43:44.447Z,84.05
2018-06-15T21:46:13.795Z,84.13
2018-06-15T21:48:43.200Z,84.26
2018-06-15T21:51:12.544Z,84.00
2018-06-15T21:53:41.893Z,84.14
2018-06-15T21:56:11.247Z,84.69
2018-06-15T21:58:40.598Z,84.58
2018-06-15T22:01:10.039Z,84.60
2018-06-15T22:03:39.416Z,84.18
2018-06-15T22:06:08.734Z,85.16
2018-06-15T22:08:38.077Z,84.95
2018-06-15T22:11:07.494Z,85.15
2018-06-15T22:13:36.853Z,85.72
2018-06-15T22:16:06.237Z,85.67
2018-06-15T22:18:35.584Z,85.61
2018-06-15T22:21:04.911Z,85.22
2018-06-15T22:23:34.220Z,85.44
2018-06-15T22:26:04.058Z,86.37
2018-06-15T22:28:33.749Z,87.58
2018-06-15T22:31:03.428Z,87.61
2018-06-15T22:33:33.121Z,87.59
2018-06-15T22:36:02.831Z,87.90
2018-06-15T22:38:32.377Z,87.89
2018-06-15T22:41:01.682Z,87.94
2018-06-15T22:43:31.321Z,89.07
2018-06-15T22:46:00.976Z,88.35
2018-06-15T22:48:30.661Z,88.85
2018-06-15T22:51:00.402Z,88.32
2018-06-15T22:53:30.065Z,88.87
2018-06-15T22:55:59.682Z,88.72
2018-06-15T22:58:29.342Z,89.78
2018-06-15T23:00:59.062Z,89.10
2018-06-15T23:03:28.759Z,89.03
2018-06-15T23:05:58.521Z,89.72
2018-06-15T23:08:28.215Z,89.20
2018-06-15T23:10:57.869Z,89.00
2018-06-15T23:13:27.497Z,89.74
2018-06-15T23:15:57.181Z,88.92
2018-06-15T23:18:26.919Z,89.01
2018-06-15T23:20:56.584Z,88.99
2018-06-15T23:23:26.536Z,90.05
2018-06-15T23:25:56.122Z,89.33
2018-06-15T23:28:25.836Z,90.06
2018-06-15T23:30:55.493Z,90.28
2018-06-15T23:33:25.153Z,89.72
2018-06-15T23:35:54.893Z,91.61
2018-06-15T23:38:24.521Z,91.17
2018-06-15T23:40:54.147Z,91.05
2018-06-15T23:43:23.808Z,91.24
2018-06-15T23:45:53.402Z,91.31
2018-06-15T23:48:22.967Z,91.59
2018-06-15T23:50:52.619Z,91.65
2018-06-15T23:53:22.279Z,91.65
2018-06-15T23:55:51.916Z,91.59
2018-06-15T23:58:21.610Z,91.58
